Riske Creek, Canada
Current Conditions -  °F | °C
As of 12:00 PM on Tuesday 21 Oct 2014 (Local Time) from CYWL Reporting Station
Few Clouds Few Clouds  
Wind Chill: 50°   Ceiling: Unl
Heat Index: 50°   Visibility: 15mi
Dew Point: 37°   Wind: 18mph
Humidity: 62%   Direction: 120°ESE
Pressure: 29.65"   Gusts: 28mph
Location:  51.97°N, 122.52°W
Report Text: CYWL 211900Z 12016G24KT 15SM FEW050 FEW090 FEW120 FEW210 10/03 A2965 RMK CF1AC1AC1CI1 CF TR AC TR CI TR SLP052 DENSITY ALT 3500FT
Loading
Personal Weather Stations






























Interactive Weather Map
Tropical Storm Tracking
New forecast layout! Learn more

10-Day Weather Forecast

Advertisements
Track Severe Weather on mobile